Time;durP1;ratioP1;P1;durP2;ratioP2;P2;SDS_P1;SDS_P2;PMS_P1;PMS_P2;Temp;Humidity;BMP_temperature;BMP_pressure;BME280_temperature;BME280_humidity;BME280_pressure;Samples;Min_cycle;Max_cycle;Signal;HPM_P1;HPM_P2
2021/10/05 00:01:14;;;;;;;3.58;1.48;;;;;;;9.24;50.04;101334.34;4974931;28;20042;-67
2021/10/05 00:03:39;;;;;;;3.00;1.80;;;;;;;9.16;50.14;101331.94;4969921;28;20061;-66
2021/10/05 00:06:04;;;;;;;3.15;1.92;;;;;;;9.22;50.10;101334.38;4988090;28;20101;-67
2021/10/05 00:08:30;;;;;;;2.13;1.60;;;;;;;9.07;50.64;101326.97;4989801;28;20121;-66
2021/10/05 00:10:55;;;;;;;2.20;1.63;;;;;;;9.13;50.79;101327.66;4991052;28;20049;-66
2021/10/05 00:13:22;;;;;;;2.53;1.80;;;;;;;9.37;49.57;101323.53;4996825;28;20033;-66
2021/10/05 00:15:49;;;;;;;8.13;1.77;;;;;;;9.37;49.64;101325.28;4991306;28;21856;-67
2021/10/05 00:18:14;;;;;;;2.03;1.10;;;;;;;9.36;49.28;101324.41;4962040;28;20034;-66
2021/10/05 00:20:40;;;;;;;4.75;2.13;;;;;;;9.33;49.60;101329.72;4974715;28;20046;-67
2021/10/05 00:23:05;;;;;;;2.30;1.70;;;;;;;9.35;49.36;101327.94;4988438;28;20045;-67
2021/10/05 00:25:31;;;;;;;1.90;1.13;;;;;;;9.35;49.19;101327.94;4987441;28;20140;-66
2021/10/05 00:27:56;;;;;;;3.53;1.50;;;;;;;9.24;49.45;101324.78;4972574;28;20065;-67
2021/10/05 00:30:21;;;;;;;1.98;1.35;;;;;;;9.29;49.72;101320.28;4989033;28;20045;-67
2021/10/05 00:32:47;;;;;;;5.68;1.27;;;;;;;9.29;49.63;101317.66;4990998;28;20563;-66
2021/10/05 00:35:13;;;;;;;5.97;1.67;;;;;;;9.31;49.62;101320.25;4990812;28;20353;-66
2021/10/05 00:37:38;;;;;;;2.75;1.27;;;;;;;9.37;49.75;101318.31;4975776;28;20043;-67
2021/10/05 00:40:05;;;;;;;3.22;1.30;;;;;;;9.08;50.16;101300.88;4974437;28;20423;-67
2021/10/05 00:42:31;;;;;;;1.77;1.15;;;;;;;9.22;50.35;101302.25;4988573;28;20038;-66
2021/10/05 00:44:56;;;;;;;2.17;1.15;;;;;;;9.28;49.96;101305.53;4992438;28;20065;-66
2021/10/05 00:47:22;;;;;;;2.10;1.55;;;;;;;9.27;49.58;101290.75;4975359;28;20038;-66
2021/10/05 00:49:48;;;;;;;5.55;1.55;;;;;;;9.22;50.19;101295.25;4992048;28;20113;-66
2021/10/05 00:52:16;;;;;;;1.85;1.40;;;;;;;9.28;50.15;101284.66;4993159;28;20117;-66
2021/10/05 00:54:43;;;;;;;2.97;1.40;;;;;;;9.25;49.76;101278.66;4992934;28;20145;-65
2021/10/05 00:57:10;;;;;;;2.80;1.13;;;;;;;9.33;49.46;101281.94;4992528;28;20402;-65
2021/10/05 00:59:36;;;;;;;1.48;1.02;;;;;;;9.35;49.42;101278.38;4991438;28;20097;-66
2021/10/05 01:02:05;;;;;;;3.33;1.27;;;;;;;9.27;49.43;101280.31;4972264;28;20094;-65
2021/10/05 01:04:31;;;;;;;2.92;0.90;;;;;;;9.25;50.03;101274.28;4991938;28;20043;-66
2021/10/05 01:06:59;;;;;;;3.58;2.33;;;;;;;9.27;49.88;101272.50;4989321;28;20081;-68
2021/10/05 01:09:26;;;;;;;1.70;1.10;;;;;;;9.16;50.09;101272.84;4991054;28;20046;-69
2021/10/05 01:11:53;;;;;;;2.90;1.25;;;;;;;9.11;50.12;101266.03;4990794;28;20042;-68
2021/10/05 01:14:18;;;;;;;3.58;1.00;;;;;;;9.20;50.00;101270.97;4992353;28;20564;-68
2021/10/05 01:16:44;;;;;;;1.92;1.73;;;;;;;9.19;49.97;101269.28;4990907;28;20116;-68
2021/10/05 01:19:09;;;;;;;6.47;1.33;;;;;;;9.19;49.94;101264.06;4972940;28;20050;-69
2021/10/05 01:21:35;;;;;;;3.35;1.15;;;;;;;9.08;50.54;101266.13;4985689;28;20117;-69
2021/10/05 01:24:09;;;;;;;2.35;1.60;;;;;;;8.92;50.96;101271.75;4974594;28;20116;-69
2021/10/05 01:26:35;;;;;;;2.72;1.30;;;;;;;8.39;52.35;101260.91;4975812;28;20525;-68
2021/10/05 01:29:02;;;;;;;2.60;1.10;;;;;;;9.05;50.66;101250.53;4987803;28;20038;-69
2021/10/05 01:31:33;;;;;;;2.58;1.50;;;;;;;9.11;50.62;101255.59;4971218;28;20038;-66
2021/10/05 01:33:59;;;;;;;4.13;1.42;;;;;;;9.12;50.23;101257.28;4991578;28;20091;-66
2021/10/05 01:36:25;;;;;;;3.40;1.00;;;;;;;9.09;50.41;101244.34;4990795;28;20045;-65
2021/10/05 01:38:51;;;;;;;1.52;1.10;;;;;;;9.12;50.27;101246.84;4971632;28;20394;-65
2021/10/05 01:41:17;;;;;;;3.42;1.77;;;;;;;8.93;50.81;101242.16;4991960;28;20297;-65
2021/10/05 01:43:42;;;;;;;2.60;1.30;;;;;;;9.09;50.33;101239.13;4988889;28;20038;-65
2021/10/05 01:46:13;;;;;;;3.80;1.15;;;;;;;9.07;50.47;101233.94;4971492;28;20096;-65
2021/10/05 01:48:40;;;;;;;3.38;1.60;;;;;;;9.07;50.47;101236.56;4987335;28;20122;-66
2021/10/05 01:51:05;;;;;;;2.60;1.08;;;;;;;8.66;51.48;101242.88;4989492;28;20062;-65
2021/10/05 01:53:31;;;;;;;4.68;1.00;;;;;;;9.08;50.52;101245.25;4986311;28;20506;-65
2021/10/05 01:55:57;;;;;;;5.53;1.13;;;;;;;8.98;50.86;101229.88;4974341;28;20403;-64
2021/10/05 01:58:22;;;;;;;3.80;1.13;;;;;;;8.98;50.67;101229.88;4990354;28;20053;-65
2021/10/05 02:00:50;;;;;;;4.88;1.60;;;;;;;9.02;50.77;101235.00;4986267;28;20089;-66
2021/10/05 02:03:16;;;;;;;1.80;1.05;;;;;;;8.98;50.99;101227.25;4960851;28;20038;-65
2021/10/05 02:05:41;;;;;;;3.10;1.60;;;;;;;8.95;51.12;101226.47;4989847;28;20104;-64
2021/10/05 02:08:09;;;;;;;2.75;1.48;;;;;;;8.87;51.21;101223.22;4990562;28;20407;-66
2021/10/05 02:10:35;;;;;;;1.75;1.20;;;;;;;8.93;51.07;101215.25;4984760;28;20092;-68
2021/10/05 02:13:01;;;;;;;2.47;1.05;;;;;;;8.90;50.66;101217.94;4989079;28;20062;-66
2021/10/05 02:15:30;;;;;;;1.80;1.25;;;;;;;8.81;51.02;101211.22;4989440;28;20038;-67
2021/10/05 02:17:56;;;;;;;2.40;1.42;;;;;;;8.55;51.76;101217.94;4988874;28;20114;-66
2021/10/05 02:20:21;;;;;;;3.97;1.42;;;;;;;8.48;52.42;101224.19;4988255;28;20145;-66
2021/10/05 02:22:48;;;;;;;2.47;1.58;;;;;;;8.52;51.89;101217.19;4987185;28;20031;-66
2021/10/05 02:25:14;;;;;;;2.80;1.23;;;;;;;8.69;51.32;101211.50;4974056;28;20042;-67
2021/10/05 02:27:40;;;;;;;3.50;1.30;;;;;;;8.64;51.81;101197.75;4990998;28;20038;-67
2021/10/05 02:30:06;;;;;;;2.05;1.20;;;;;;;8.50;51.88;101203.34;4988759;28;20133;-68
2021/10/05 02:32:32;;;;;;;2.15;1.35;;;;;;;8.58;52.04;101201.34;4988476;28;20038;-68
2021/10/05 02:34:58;;;;;;;3.50;1.60;;;;;;;8.51;52.38;101205.03;4986962;28;20503;-67
2021/10/05 02:37:29;;;;;;;2.63;1.65;;;;;;;8.48;52.00;101203.38;4987611;28;20035;-67
2021/10/05 02:39:55;;;;;;;6.05;1.55;;;;;;;8.48;51.99;101195.53;4986784;28;20574;-67
2021/10/05 02:42:21;;;;;;;2.90;1.13;;;;;;;8.52;51.96;101194.56;4988999;28;20121;-67
2021/10/05 02:44:46;;;;;;;4.22;1.42;;;;;;;8.47;51.88;101180.81;4986175;28;20161;-67
2021/10/05 02:47:12;;;;;;;1.95;1.30;;;;;;;8.43;52.51;101179.19;4987922;28;20030;-67
2021/10/05 02:49:43;;;;;;;3.25;1.42;;;;;;;8.34;52.74;101169.03;4988721;28;20347;-63
2021/10/05 02:52:10;;;;;;;3.85;1.88;;;;;;;8.34;52.95;101159.44;4986524;28;20034;-64
2021/10/05 02:54:35;;;;;;;4.50;1.65;;;;;;;8.37;52.89;101158.50;4985180;28;20031;-64
2021/10/05 02:57:00;;;;;;;4.18;1.92;;;;;;;8.35;52.78;101155.09;4988390;28;20043;-63
2021/10/05 02:59:28;;;;;;;4.35;2.25;;;;;;;8.45;52.36;101151.34;4988474;28;20034;-68
2021/10/05 03:01:54;;;;;;;2.50;1.55;;;;;;;8.40;52.39;101153.19;4971342;28;20467;-68
2021/10/05 03:04:19;;;;;;;3.95;1.92;;;;;;;8.35;52.86;101150.72;4985893;28;20046;-68
2021/10/05 03:06:44;;;;;;;2.92;2.08;;;;;;;8.39;52.77;101146.31;4987905;28;20053;-68
2021/10/05 03:09:10;;;;;;;8.25;2.38;;;;;;;8.26;52.74;101139.72;4985679;28;20069;-68
2021/10/05 03:11:35;;;;;;;3.80;1.77;;;;;;;8.22;52.98;101138.91;4969956;28;20035;-65
2021/10/05 03:14:01;;;;;;;5.75;2.45;;;;;;;8.14;53.26;101131.31;4967944;28;20046;-64
2021/10/05 03:16:26;;;;;;;4.63;2.58;;;;;;;8.14;53.63;101131.31;4989001;28;20038;-65
2021/10/05 03:18:52;;;;;;;4.25;2.22;;;;;;;8.27;53.06;101126.66;4985863;28;20376;-66
2021/10/05 03:21:19;;;;;;;8.25;2.22;;;;;;;8.21;52.99;101132.00;4986334;28;20054;-65
2021/10/05 03:23:44;;;;;;;2.75;2.00;;;;;;;8.17;53.22;101132.13;4975293;28;20328;-63
2021/10/05 03:26:10;;;;;;;5.38;2.35;;;;;;;8.09;53.73;101127.09;4988685;28;20411;-64
2021/10/05 03:28:35;;;;;;;3.85;2.35;;;;;;;8.13;53.60;101123.53;4986248;28;20045;-64
2021/10/05 03:31:01;;;;;;;5.45;2.17;;;;;;;8.15;53.90;101119.16;4969995;28;20038;-64
2021/10/05 03:33:26;;;;;;;8.23;2.40;;;;;;;8.21;53.29;101121.59;4985034;28;20030;-64
2021/10/05 03:35:52;;;;;;;5.00;2.65;;;;;;;8.17;53.67;101122.56;4962892;28;20042;-66
2021/10/05 03:38:18;;;;;;;2.20;1.85;;;;;;;8.12;53.78;101122.69;4986580;28;20571;-64
2021/10/05 03:40:43;;;;;;;7.00;2.22;;;;;;;7.91;54.28;101126.69;4972477;28;20072;-64
2021/10/05 03:43:09;;;;;;;2.50;1.80;;;;;;;8.21;53.94;101120.75;4988020;28;20034;-64
2021/10/05 03:45:34;;;;;;;3.97;2.13;;;;;;;8.19;53.87;101109.53;4986069;28;20044;-65
2021/10/05 03:48:00;;;;;;;3.13;2.28;;;;;;;8.04;54.36;101119.41;4986175;28;20092;-65
2021/10/05 03:50:25;;;;;;;3.20;2.35;;;;;;;8.03;54.44;101116.88;4985676;28;20037;-65
2021/10/05 03:52:51;;;;;;;4.00;2.65;;;;;;;8.07;54.22;101114.16;4984423;28;20038;-65
2021/10/05 03:55:17;;;;;;;3.40;2.13;;;;;;;8.14;53.87;101115.69;4989163;28;20038;-65
2021/10/05 03:57:45;;;;;;;2.30;1.85;;;;;;;8.15;53.97;101112.19;4987264;28;20411;-64
2021/10/05 04:00:10;;;;;;;6.57;2.92;;;;;;;8.11;54.09;101112.31;4986704;28;20096;-64
2021/10/05 04:02:36;;;;;;;3.97;2.55;;;;;;;8.12;54.03;101112.28;4974295;28;20035;-66
2021/10/05 04:05:02;;;;;;;3.42;2.60;;;;;;;8.07;54.12;101108.94;4989101;28;20444;-64
2021/10/05 04:07:28;;;;;;;9.00;3.00;;;;;;;8.04;54.26;101105.56;4968651;28;20139;-63
2021/10/05 04:09:54;;;;;;;3.63;2.45;;;;;;;8.08;53.96;101102.81;4970221;28;20527;-65
2021/10/05 04:12:19;;;;;;;6.85;3.03;;;;;;;8.08;54.03;101099.38;4987807;28;20027;-65
2021/10/05 04:14:45;;;;;;;4.30;2.30;;;;;;;8.13;53.77;101097.50;4985940;28;20177;-64
2021/10/05 04:17:11;;;;;;;3.85;2.33;;;;;;;8.10;53.88;101088.03;4984923;28;20030;-64
2021/10/05 04:19:36;;;;;;;5.18;2.45;;;;;;;8.08;53.75;101097.63;4986355;28;20394;-64
2021/10/05 04:22:02;;;;;;;4.30;2.72;;;;;;;7.92;54.58;101084.16;4974225;28;20533;-65
2021/10/05 04:24:28;;;;;;;4.30;2.60;;;;;;;7.95;54.29;101083.22;4983716;28;20069;-65
2021/10/05 04:26:53;;;;;;;4.32;2.45;;;;;;;8.01;54.07;101077.84;4985805;28;20038;-64
2021/10/05 04:29:19;;;;;;;4.65;2.90;;;;;;;8.08;53.81;101074.19;4987083;28;20038;-64
2021/10/05 04:31:44;;;;;;;8.88;3.10;;;;;;;7.76;55.36;101081.97;4985952;28;20411;-65
2021/10/05 04:34:10;;;;;;;6.15;3.92;;;;;;;8.02;54.39;101074.34;4989137;28;20039;-65
2021/10/05 04:36:35;;;;;;;5.25;2.83;;;;;;;8.06;53.98;101070.78;4969205;28;20049;-65
2021/10/05 04:39:01;;;;;;;2.95;2.33;;;;;;;8.05;53.95;101071.69;4987012;28;20502;-66
2021/10/05 04:41:26;;;;;;;5.05;3.50;;;;;;;8.04;53.89;101072.56;4955140;28;20123;-65
2021/10/05 04:43:52;;;;;;;4.45;2.95;;;;;;;8.12;53.89;101068.00;4986686;28;20031;-64
2021/10/05 04:46:18;;;;;;;5.78;3.17;;;;;;;8.06;53.89;101055.16;4987067;28;20467;-64
2021/10/05 04:48:44;;;;;;;5.10;2.95;;;;;;;8.04;53.93;101062.16;4983444;28;20038;-66
2021/10/05 04:51:10;;;;;;;5.60;4.00;;;;;;;8.03;54.13;101059.59;4975614;28;20042;-66
2021/10/05 04:53:35;;;;;;;5.88;3.30;;;;;;;7.93;53.96;101065.03;4987097;28;20404;-67
2021/10/05 04:56:02;;;;;;;5.22;3.55;;;;;;;7.85;54.35;101056.59;4985917;28;20042;-66
2021/10/05 04:58:27;;;;;;;6.43;3.30;;;;;;;8.01;54.06;101048.38;4978475;28;20514;-66
2021/10/05 05:00:53;;;;;;;4.93;3.67;;;;;;;8.02;53.76;101048.31;4973896;28;20270;-67
2021/10/05 05:03:18;;;;;;;5.40;3.72;;;;;;;7.99;54.17;101050.16;4986814;28;20033;-67
2021/10/05 05:05:44;;;;;;;8.93;4.60;;;;;;;7.94;54.33;101045.09;4990094;28;20570;-64
2021/10/05 05:08:09;;;;;;;5.82;4.80;;;;;;;7.92;54.44;101052.06;4989298;28;20030;-65
2021/10/05 05:10:34;;;;;;;4.78;3.20;;;;;;;7.88;54.25;101045.22;4987876;28;20039;-64
2021/10/05 05:13:00;;;;;;;4.88;3.20;;;;;;;7.78;54.49;101044.63;4987966;28;20034;-64
2021/10/05 05:15:25;;;;;;;5.65;3.75;;;;;;;7.85;54.56;101045.31;4989042;28;20713;-63
2021/10/05 05:17:51;;;;;;;6.40;4.43;;;;;;;7.86;54.51;101037.44;4991031;28;20110;-64
2021/10/05 05:20:17;;;;;;;6.65;3.50;;;;;;;7.86;54.47;101041.81;4989707;28;20042;-65
2021/10/05 05:22:44;;;;;;;7.43;4.88;;;;;;;7.88;54.16;101034.81;4994015;28;20046;-64
2021/10/05 05:25:10;;;;;;;5.40;4.25;;;;;;;7.78;54.67;101031.63;4989108;28;20050;-65
2021/10/05 05:27:35;;;;;;;8.35;5.00;;;;;;;7.87;54.34;101033.09;4991965;28;20076;-64
2021/10/05 05:30:01;;;;;;;8.30;4.63;;;;;;;7.84;54.34;101033.19;4973027;28;20053;-65
2021/10/05 05:32:27;;;;;;;7.38;4.05;;;;;;;7.84;54.20;101028.84;4988976;28;20041;-65
2021/10/05 05:34:52;;;;;;;8.48;4.10;;;;;;;7.78;54.41;101033.34;4979394;28;20034;-65
2021/10/05 05:37:18;;;;;;;10.15;5.45;;;;;;;7.58;54.82;101028.63;4989272;28;20282;-65
2021/10/05 05:39:43;;;;;;;6.65;4.32;;;;;;;7.68;54.85;101023.16;4992731;28;20117;-65
2021/10/05 05:42:11;;;;;;;6.28;4.65;;;;;;;7.74;54.63;101020.41;4970646;28;20030;-64
2021/10/05 05:44:38;;;;;;;5.55;4.38;;;;;;;7.74;54.75;101016.97;4985183;28;20150;-65
2021/10/05 05:47:04;;;;;;;7.90;4.90;;;;;;;7.77;54.69;101016.03;4986945;28;20034;-64
2021/10/05 05:49:30;;;;;;;7.18;5.30;;;;;;;7.67;54.70;101013.69;4991246;28;20463;-64
2021/10/05 05:51:55;;;;;;;10.30;5.22;;;;;;;7.63;54.82;101019.84;4989480;28;20044;-64
2021/10/05 05:54:21;;;;;;;8.60;5.30;;;;;;;7.68;54.81;101012.75;4991090;28;20034;-65
2021/10/05 05:56:46;;;;;;;9.50;5.10;;;;;;;7.70;55.12;101010.13;4988066;28;20069;-64
2021/10/05 05:59:12;;;;;;;9.13;4.32;;;;;;;7.74;55.03;101015.22;4988469;28;20034;-65
2021/10/05 06:01:38;;;;;;;6.53;4.90;;;;;;;7.62;55.06;101012.91;4971130;28;20143;-64
2021/10/05 06:04:05;;;;;;;6.50;4.85;;;;;;;7.78;54.77;101012.53;4971973;28;20121;-64
2021/10/05 06:06:32;;;;;;;8.77;5.05;;;;;;;7.78;54.86;101021.22;4986822;28;20522;-64
2021/10/05 06:08:59;;;;;;;12.02;5.00;;;;;;;7.74;55.09;101017.81;4975090;28;20073;-65
2021/10/05 06:11:28;;;;;;;10.27;5.07;;;;;;;7.80;54.68;101003.81;4989897;28;20033;-65
2021/10/05 06:13:54;;;;;;;9.25;6.03;;;;;;;7.82;55.01;101002.00;4987011;28;20030;-65
2021/10/05 06:16:19;;;;;;;9.35;5.25;;;;;;;7.95;54.34;101000.78;4993142;28;20037;-65
2021/10/05 06:18:45;;;;;;;8.30;5.82;;;;;;;8.01;54.11;101004.13;4990413;28;20045;-65
2021/10/05 06:21:11;;;;;;;8.40;5.43;;;;;;;7.87;54.71;101005.34;4987854;28;20049;-65
2021/10/05 06:23:36;;;;;;;7.13;5.07;;;;;;;7.98;54.08;101012.88;4987624;28;20034;-66
2021/10/05 06:26:03;;;;;;;9.15;5.07;;;;;;;8.05;54.40;101010.97;4990001;28;20534;-64
2021/10/05 06:28:28;;;;;;;9.27;5.40;;;;;;;8.09;54.30;101013.44;4988613;28;20154;-64
2021/10/05 06:30:54;;;;;;;9.20;5.80;;;;;;;8.21;53.73;101007.03;4988752;28;20030;-65
2021/10/05 06:33:19;;;;;;;7.78;5.03;;;;;;;7.94;54.34;101013.84;4988548;28;20030;-65
2021/10/05 06:35:45;;;;;;;7.90;5.22;;;;;;;8.28;53.35;101007.72;4987854;28;20499;-65
2021/10/05 06:38:13;;;;;;;8.40;5.43;;;;;;;8.39;53.55;101005.66;4975707;28;20066;-66
2021/10/05 06:40:39;;;;;;;8.82;5.72;;;;;;;8.44;52.80;101000.31;4986762;28;20049;-64
2021/10/05 06:43:05;;;;;;;9.85;5.70;;;;;;;8.24;53.56;100999.13;4990119;28;20037;-69
2021/10/05 06:45:31;;;;;;;6.80;4.68;;;;;;;8.56;52.78;100998.22;4985253;28;20042;-65
2021/10/05 06:47:56;;;;;;;10.25;6.13;;;;;;;8.60;52.75;100998.09;4990476;28;20068;-65
2021/10/05 06:50:22;;;;;;;10.70;6.18;;;;;;;8.83;52.55;100997.44;4973309;28;20038;-65
2021/10/05 06:52:48;;;;;;;8.13;4.88;;;;;;;8.85;52.16;100991.28;4984654;28;20061;-65
2021/10/05 06:55:14;;;;;;;9.20;5.63;;;;;;;9.12;52.00;100984.34;4984374;28;20133;-65
2021/10/05 06:57:40;;;;;;;9.63;5.68;;;;;;;9.19;51.55;100992.84;4972051;28;20076;-64
2021/10/05 07:00:13;;;;;;;7.18;4.90;;;;;;;9.22;51.58;100992.72;4986776;28;20117;-67
2021/10/05 07:02:44;;;;;;;8.55;5.88;;;;;;;9.25;50.75;100984.78;4989073;28;20354;-65
2021/10/05 07:05:10;;;;;;;7.43;5.05;;;;;;;9.47;51.16;100979.72;4984492;28;20391;-65
2021/10/05 07:07:43;;;;;;;10.15;5.72;;;;;;;9.64;50.58;100973.94;4988991;28;20279;-65
2021/10/05 07:10:10;;;;;;;11.43;6.03;;;;;;;9.67;50.10;100968.59;4983255;28;20047;-65
2021/10/05 07:12:36;;;;;;;9.30;6.18;;;;;;;9.60;49.99;100974.94;4988090;28;20089;-65
2021/10/05 07:15:06;;;;;;;7.45;6.05;;;;;;;9.80;49.51;100967.28;4989429;28;20103;-65
2021/10/05 07:17:33;;;;;;;8.57;5.88;;;;;;;9.85;50.40;100966.28;4967936;28;20042;-65
2021/10/05 07:19:59;;;;;;;8.60;5.78;;;;;;;10.04;49.61;100954.28;4966425;28;20031;-65
2021/10/05 07:22:25;;;;;;;8.60;6.03;;;;;;;10.12;48.56;100965.28;4987127;28;20222;-65
2021/10/05 07:24:50;;;;;;;5.45;4.53;;;;;;;10.58;48.59;100952.25;4986930;28;20031;-65
2021/10/05 07:27:16;;;;;;;7.70;5.15;;;;;;;10.66;47.12;100950.22;4972630;28;20058;-64
2021/10/05 07:29:42;;;;;;;6.60;4.82;;;;;;;11.33;46.35;100940.56;4985492;28;20054;-65
2021/10/05 07:32:07;;;;;;;6.03;5.07;;;;;;;11.71;45.53;100935.44;4987423;28;20026;-66
2021/10/05 07:34:33;;;;;;;7.38;5.43;;;;;;;12.36;43.81;100928.19;4988146;28;20150;-65
2021/10/05 07:36:58;;;;;;;8.85;5.50;;;;;;;13.79;41.40;100929.03;4972180;28;20251;-64
2021/10/05 07:39:25;;;;;;;7.43;4.50;;;;;;;13.94;40.15;100923.81;4958492;28;20084;-65
2021/10/05 07:41:50;;;;;;;6.45;4.65;;;;;;;14.04;39.67;100925.97;4984603;28;20184;-65
2021/10/05 07:44:16;;;;;;;6.20;4.95;;;;;;;14.10;38.96;100923.00;4984478;28;20121;-66
2021/10/05 07:46:41;;;;;;;5.07;4.25;;;;;;;14.09;39.05;100916.03;4984653;28;20297;-66
2021/10/05 07:49:07;;;;;;;4.95;3.80;;;;;;;14.00;40.39;100911.28;4982666;28;20198;-66
2021/10/05 07:51:33;;;;;;;7.07;4.25;;;;;;;13.96;39.43;100907.13;4965583;28;20510;-65
2021/10/05 07:53:59;;;;;;;6.50;4.72;;;;;;;14.10;40.13;100901.97;4974230;28;20261;-66
2021/10/05 07:56:25;;;;;;;5.85;4.38;;;;;;;13.75;40.54;100890.72;4985167;28;20042;-65
2021/10/05 07:58:51;;;;;;;5.95;4.40;;;;;;;13.88;40.72;100908.38;4984212;28;20038;-65
2021/10/05 08:01:16;;;;;;;8.02;4.10;;;;;;;13.55;40.92;100894.38;4982021;28;20046;-65
2021/10/05 08:03:41;;;;;;;8.07;5.00;;;;;;;13.97;40.44;100893.06;4984162;28;20053;-65
2021/10/05 08:06:07;;;;;;;6.82;5.07;;;;;;;13.36;41.50;100897.97;4980880;28;20171;-66
2021/10/05 08:08:32;;;;;;;5.40;4.57;;;;;;;12.94;42.65;100883.47;4983423;28;20038;-65
2021/10/05 08:10:58;;;;;;;12.20;5.38;;;;;;;13.15;42.70;100880.66;4982611;28;20042;-65
2021/10/05 08:13:23;;;;;;;6.47;4.47;;;;;;;13.48;41.76;100884.19;4984700;28;20105;-66
2021/10/05 08:15:49;;;;;;;6.82;4.30;;;;;;;13.94;40.80;100879.16;4970298;28;20050;-66
2021/10/05 08:18:14;;;;;;;4.75;3.80;;;;;;;14.35;40.23;100876.00;4983758;28;20038;-66
2021/10/05 08:20:42;;;;;;;8.30;4.10;;;;;;;14.42;40.32;100873.94;4983452;28;20034;-65
2021/10/05 08:23:07;;;;;;;6.07;3.88;;;;;;;14.33;40.08;100867.38;4968607;28;20039;-65
2021/10/05 08:25:33;;;;;;;5.38;4.05;;;;;;;14.61;40.09;100867.59;4986416;28;20049;-66
2021/10/05 08:27:59;;;;;;;6.43;4.07;;;;;;;14.75;40.03;100865.91;4980819;28;20071;-65
2021/10/05 08:30:25;;;;;;;6.95;4.18;;;;;;;13.83;41.60;100865.75;4983405;28;20112;-65
2021/10/05 08:32:51;;;;;;;4.13;3.13;;;;;;;14.30;40.83;100864.91;4987130;28;20065;-65
2021/10/05 08:35:17;;;;;;;6.18;4.40;;;;;;;14.31;40.51;100853.47;4986742;28;20471;-65
2021/10/05 08:37:43;;;;;;;5.03;4.45;;;;;;;13.82;41.17;100861.41;4987502;28;20606;-65
2021/10/05 08:40:12;;;;;;;6.72;3.92;;;;;;;13.23;42.99;100863.63;4973973;28;20069;-64
2021/10/05 08:42:38;;;;;;;5.03;4.25;;;;;;;12.72;44.07;100859.22;4986482;28;20045;-65
2021/10/05 08:45:06;;;;;;;7.32;4.80;;;;;;;13.06;43.68;100840.84;4968173;28;20046;-65
2021/10/05 08:47:32;;;;;;;5.55;3.95;;;;;;;12.88;44.30;100839.16;4987911;28;20155;-65
2021/10/05 08:49:59;;;;;;;7.05;4.47;;;;;;;13.05;43.98;100844.41;4987707;28;20035;-65
2021/10/05 08:52:25;;;;;;;6.30;3.72;;;;;;;12.73;44.54;100837.31;4988454;28;20388;-65
2021/10/05 08:54:51;;;;;;;4.88;4.00;;;;;;;12.52;45.30;100832.16;4969097;28;20042;-67
2021/10/05 08:57:17;;;;;;;5.10;3.85;;;;;;;12.53;44.91;100825.97;4983256;28;20041;-65
2021/10/05 08:59:42;;;;;;;6.05;4.28;;;;;;;12.84;44.53;100819.25;4984286;28;20417;-65
2021/10/05 09:02:16;;;;;;;5.82;4.30;;;;;;;13.51;43.96;100820.16;4987098;28;20087;-65
2021/10/05 09:04:44;;;;;;;7.75;4.18;;;;;;;13.27;43.08;100823.16;4983912;28;20041;-65
2021/10/05 09:07:21;;;;;;;7.18;4.03;;;;;;;14.24;41.62;100810.03;4986718;28;20045;-65
2021/10/05 09:10:02;;;;;;;7.63;3.90;;;;;;;14.15;40.96;100807.94;4987954;28;20046;-65
2021/10/05 09:12:30;;;;;;;6.60;3.67;;;;;;;13.67;42.08;100814.97;4988206;28;20444;-66
2021/10/05 09:14:57;;;;;;;5.28;3.67;;;;;;;13.81;41.98;100809.81;4988820;28;20775;-67
2021/10/05 09:17:29;;;;;;;4.75;3.72;;;;;;;13.82;43.05;100798.38;4989174;28;20172;-65
2021/10/05 09:19:57;;;;;;;6.18;3.65;;;;;;;14.31;41.01;100800.88;4971609;28;20065;-66
2021/10/05 09:22:27;;;;;;;7.43;3.95;;;;;;;14.53;41.42;100797.06;4978156;28;20041;-65
2021/10/05 09:24:55;;;;;;;4.78;2.97;;;;;;;14.35;41.39;100794.50;4987351;28;20097;-65
2021/10/05 09:27:22;;;;;;;6.55;3.40;;;;;;;14.05;41.53;100801.50;4977127;28;20030;-65
2021/10/05 09:29:49;;;;;;;6.20;3.47;;;;;;;14.08;42.58;100799.56;4971319;28;20045;-65
2021/10/05 09:32:23;;;;;;;4.18;3.58;;;;;;;14.15;42.39;100795.66;4990190;28;20041;-65
2021/10/05 09:34:56;;;;;;;4.50;3.53;;;;;;;14.65;40.59;100788.44;4986731;28;20385;-65
2021/10/05 09:37:24;;;;;;;3.08;2.78;;;;;;;14.94;40.25;100791.13;4990830;28;20158;-65
2021/10/05 09:40:10;;;;;;;3.78;2.92;;;;;;;14.79;40.90;100779.75;4986715;28;20531;-65
2021/10/05 09:42:43;;;;;;;4.22;3.22;;;;;;;14.69;40.57;100778.59;4986475;28;20053;-66
2021/10/05 09:45:10;;;;;;;5.75;2.80;;;;;;;14.99;39.74;100775.91;4987950;28;20052;-65
2021/10/05 09:47:46;;;;;;;2.67;2.15;;;;;;;14.93;40.51;100774.50;4985583;28;20046;-66
2021/10/05 09:50:18;;;;;;;3.58;2.42;;;;;;;15.06;40.34;100768.47;4985304;28;20042;-66
2021/10/05 09:53:16;;;;;;;3.72;2.40;;;;;;;14.94;40.45;100767.44;4969470;28;20444;-65
2021/10/05 09:55:47;;;;;;;4.00;2.28;;;;;;;14.57;41.60;100769.66;4967002;28;20057;-65
2021/10/05 09:58:16;;;;;;;7.57;2.63;;;;;;;14.63;41.93;100763.16;4987349;28;20069;-65
2021/10/05 10:00:47;;;;;;;4.25;2.45;;;;;;;15.32;40.71;100761.66;4985891;28;20046;-65
2021/10/05 10:03:15;;;;;;;3.00;1.80;;;;;;;15.50;40.10;100749.97;4990725;28;20053;-65
2021/10/05 10:05:43;;;;;;;4.22;2.10;;;;;;;15.22;39.95;100747.38;4968598;28;20054;-66
2021/10/05 10:08:10;;;;;;;4.45;2.30;;;;;;;14.83;40.36;100754.09;4988057;28;20038;-66
2021/10/05 10:10:37;;;;;;;4.03;1.98;;;;;;;15.67;39.46;100750.72;4985287;28;20061;-67
2021/10/05 10:13:05;;;;;;;2.50;2.30;;;;;;;16.22;38.56;100741.91;4987375;28;20499;-65
2021/10/05 10:15:34;;;;;;;3.33;2.83;;;;;;;16.58;37.90;100743.88;4986509;28;20042;-65
2021/10/05 10:18:19;;;;;;;3.13;2.10;;;;;;;17.46;37.27;100748.38;4989045;28;20048;-66
2021/10/05 10:20:50;;;;;;;3.20;1.92;;;;;;;16.93;37.02;100748.53;4988169;28;20058;-66
2021/10/05 10:23:20;;;;;;;2.40;2.03;;;;;;;16.30;37.51;100739.59;4987729;28;20081;-66
2021/10/05 10:25:54;;;;;;;4.30;2.28;;;;;;;16.08;38.17;100739.31;4989106;28;20116;-65
2021/10/05 10:28:28;;;;;;;2.03;1.83;;;;;;;16.23;38.63;100734.84;4969503;28;20026;-65
2021/10/05 10:30:56;;;;;;;2.88;2.50;;;;;;;16.03;38.39;100744.03;4986483;28;20046;-65
2021/10/05 10:33:28;;;;;;;2.55;2.28;;;;;;;16.26;38.50;100738.09;4989631;28;20034;-66
2021/10/05 10:35:56;;;;;;;3.55;2.38;;;;;;;15.96;38.68;100719.84;4982258;28;20371;-65
2021/10/05 10:38:31;;;;;;;3.58;1.98;;;;;;;15.54;39.75;100726.94;4988866;28;20044;-66
2021/10/05 10:40:58;;;;;;;2.80;1.90;;;;;;;15.55;40.23;100721.56;4987925;28;20037;-65
2021/10/05 10:43:27;;;;;;;5.07;1.80;;;;;;;15.92;39.13;100719.19;4987828;28;20137;-65
2021/10/05 10:46:00;;;;;;;3.33;2.30;;;;;;;15.64;40.02;100725.41;4989191;28;20581;-66
2021/10/05 10:48:33;;;;;;;3.67;2.58;;;;;;;15.37;40.19;100709.53;4989073;28;20030;-67
2021/10/05 10:51:16;;;;;;;6.20;2.05;;;;;;;15.29;40.14;100701.31;4985339;28;20452;-65
2021/10/05 10:53:45;;;;;;;5.10;2.08;;;;;;;15.31;40.89;100699.41;4982981;28;20026;-65
2021/10/05 10:56:15;;;;;;;3.05;1.88;;;;;;;15.25;41.22;100697.16;4966796;28;20109;-65
2021/10/05 10:58:44;;;;;;;3.28;2.90;;;;;;;15.26;40.51;100693.56;4987313;28;20253;-64
2021/10/05 11:01:16;;;;;;;4.25;2.28;;;;;;;14.95;40.79;100684.94;4987032;28;20180;-65
2021/10/05 11:03:42;;;;;;;3.05;2.67;;;;;;;15.40;40.58;100683.03;4987299;28;20411;-64
2021/10/05 11:06:15;;;;;;;5.28;2.75;;;;;;;15.66;39.52;100683.13;4985483;28;20392;-65
2021/10/05 11:08:55;;;;;;;4.32;3.05;;;;;;;15.50;40.42;100688.56;4985836;28;20042;-65
2021/10/05 11:11:42;;;;;;;3.40;2.35;;;;;;;15.68;40.97;100678.63;4986110;28;20041;-65
2021/10/05 11:14:10;;;;;;;5.30;3.25;;;;;;;15.41;40.98;100662.81;4985121;28;20094;-65
2021/10/05 11:16:38;;;;;;;3.90;2.67;;;;;;;15.54;40.10;100667.19;4980530;28;20073;-65
2021/10/05 11:19:17;;;;;;;3.95;2.53;;;;;;;15.19;40.95;100658.84;4974359;28;20042;-65
2021/10/05 11:21:45;;;;;;;4.57;2.10;;;;;;;15.23;40.26;100649.84;4982793;28;20054;-66
2021/10/05 11:24:14;;;;;;;3.33;2.70;;;;;;;15.34;40.32;100651.81;4984637;28;20050;-64
2021/10/05 11:26:45;;;;;;;3.95;3.00;;;;;;;15.06;41.03;100640.38;4985839;28;20049;-66
2021/10/05 11:29:10;;;;;;;3.28;2.95;;;;;;;15.30;40.46;100637.16;4981537;28;20050;-65